Time;durP1;ratioP1;P1;durP2;ratioP2;P2;SDS_P1;SDS_P2;PMS_P1;PMS_P2;Temp;Humidity;BMP_temperature;BMP_pressure;BME280_temperature;BME280_humidity;BME280_pressure;Samples;Min_cycle;Max_cycle;Signal;HPM_P1;HPM_P2
2022/06/17 00:01:42;;;;;;;10.40;9.30;;;19.40;93.20;;;19.90;61.84;95241.66;5060126;28;20533;-53
2022/06/17 00:04:09;;;;;;;13.77;11.20;;;19.40;93.30;;;19.87;61.41;95242.03;5073597;28;20454;-55
2022/06/17 00:06:39;;;;;;;14.70;11.63;;;19.40;93.30;;;19.85;61.58;95249.41;5059219;28;20830;-54
2022/06/17 00:09:08;;;;;;;20.67;12.33;;;19.40;93.30;;;19.81;61.91;95246.28;5068618;28;20475;-55
2022/06/17 00:11:37;;;;;;;15.20;12.20;;;19.40;93.60;;;19.80;61.93;95241.13;5074410;28;20478;-55
2022/06/17 00:14:06;;;;;;;14.00;12.13;;;19.30;93.50;;;19.79;62.30;95242.16;5075744;28;20458;-55
2022/06/17 00:16:33;;;;;;;18.07;12.53;;;19.30;93.90;;;19.78;62.60;95248.50;5074336;28;20478;-54
2022/06/17 00:19:00;;;;;;;14.80;13.00;;;19.30;94.10;;;19.76;62.43;95247.84;5064429;28;20478;-53
2022/06/17 00:21:29;;;;;;;20.40;12.70;;;19.30;94.20;;;19.77;62.68;95249.50;5068479;28;20487;-55
2022/06/17 00:23:57;;;;;;;12.00;10.53;;;19.30;94.30;;;19.77;62.47;95246.84;5075494;28;20466;-54
2022/06/17 00:26:25;;;;;;;15.57;11.70;;;19.30;94.40;;;19.76;62.73;95250.50;5072176;28;20482;-54
2022/06/17 00:28:53;;;;;;;15.60;13.90;;;19.30;94.40;;;19.73;62.92;95245.53;5068758;28;20458;-53
2022/06/17 00:31:20;;;;;;;14.93;13.20;;;19.30;94.40;;;19.67;62.11;95253.28;5066398;28;20486;-55
2022/06/17 00:33:48;;;;;;;14.40;12.20;;;19.30;94.30;;;19.64;62.81;95248.31;5075849;28;20473;-58
2022/06/17 00:36:17;;;;;;;18.23;13.30;;;19.20;94.40;;;19.63;62.52;95252.00;5074763;28;20493;-55
2022/06/17 00:38:45;;;;;;;13.73;12.33;;;19.20;94.50;;;19.61;62.73;95255.84;5072435;28;20909;-54
2022/06/17 00:41:16;;;;;;;17.47;14.43;;;19.20;94.60;;;19.58;63.15;95258.91;5068723;28;20483;-53
2022/06/17 00:43:45;;;;;;;21.83;14.73;;;19.10;94.70;;;19.56;62.81;95245.75;5074944;28;20446;-54
2022/06/17 00:46:23;;;;;;;16.43;12.80;;;19.10;94.70;;;19.52;62.73;95249.81;5065999;28;21011;-54
2022/06/17 00:48:57;;;;;;;20.40;12.87;;;19.10;94.70;;;19.49;62.96;95255.53;5068207;28;20465;-52
2022/06/17 00:51:27;;;;;;;19.73;13.00;;;19.10;94.90;;;19.46;63.48;95234.56;5069782;28;20742;-54
2022/06/17 00:54:00;;;;;;;17.10;14.73;;;19.00;94.80;;;19.42;62.95;95233.25;5069295;28;20454;-54
2022/06/17 00:56:29;;;;;;;16.30;14.60;;;19.00;95.00;;;19.40;63.21;95236.13;5074746;28;20547;-54
2022/06/17 00:59:04;;;;;;;16.60;13.93;;;19.00;95.00;;;19.37;63.87;95238.34;5071770;28;20924;-54
2022/06/17 01:01:38;;;;;;;18.93;14.90;;;19.00;95.20;;;19.34;63.21;95245.69;5064344;28;20478;-54
2022/06/17 01:04:09;;;;;;;18.37;14.17;;;18.90;95.20;;;19.31;63.14;95238.03;5068261;28;20453;-55
2022/06/17 01:06:39;;;;;;;24.53;14.27;;;18.90;95.20;;;19.29;63.46;95242.75;5071641;28;20478;-54
2022/06/17 01:11:53;;;;;;;19.07;13.63;;;18.80;95.40;;;19.23;63.98;95238.16;5065304;28;20512;-53
2022/06/17 01:14:23;;;;;;;19.53;14.13;;;18.80;95.50;;;19.20;63.61;95233.19;5072377;28;20461;-53
2022/06/17 01:16:50;;;;;;;15.87;12.50;;;18.80;95.60;;;19.18;63.89;95232.56;5069088;28;20455;-54
2022/06/17 01:19:25;;;;;;;18.23;13.63;;;18.80;95.70;;;19.15;63.60;95236.41;5076136;28;20459;-53
2022/06/17 01:21:54;;;;;;;21.10;12.93;;;18.70;95.50;;;19.13;63.68;95226.91;5067032;28;20797;-55
2022/06/17 01:24:23;;;;;;;16.87;12.70;;;18.70;95.60;;;19.10;64.22;95222.81;5070966;28;20474;-54
2022/06/17 01:26:50;;;;;;;20.17;13.97;;;18.70;95.60;;;19.10;63.88;95219.28;5070798;28;20466;-53
2022/06/17 01:29:18;;;;;;;20.23;14.30;;;18.70;95.60;;;19.08;63.59;95216.81;5075529;28;20462;-54
2022/06/17 01:31:49;;;;;;;15.20;13.67;;;18.70;95.90;;;19.07;63.60;95217.00;5065840;28;20454;-55
2022/06/17 01:34:17;;;;;;;17.20;13.50;;;18.60;95.60;;;19.05;64.11;95222.50;5066457;28;20450;-54
2022/06/17 01:36:44;;;;;;;14.47;12.90;;;18.70;95.60;;;19.03;63.54;95218.38;5073563;28;20478;-54
2022/06/17 01:39:13;;;;;;;17.63;13.30;;;18.60;95.60;;;18.98;63.94;95211.75;5075522;28;20457;-54
2022/06/17 01:41:42;;;;;;;15.60;12.37;;;18.60;95.60;;;18.95;63.95;95212.13;5059014;28;20558;-55
2022/06/17 01:44:12;;;;;;;12.47;11.17;;;18.60;95.60;;;18.93;63.67;95208.81;5071502;28;20465;-52
2022/06/17 01:46:41;;;;;;;14.07;11.60;;;18.50;95.60;;;18.92;63.71;95209.81;5066695;28;20478;-54
2022/06/17 01:49:10;;;;;;;14.30;12.30;;;18.50;95.70;;;18.90;63.47;95209.19;5077503;28;20458;-52
2022/06/17 01:51:42;;;;;;;13.13;11.60;;;18.50;95.60;;;18.87;64.11;95209.56;5069050;28;20495;-55
2022/06/17 01:54:12;;;;;;;14.43;11.73;;;18.50;95.60;;;18.84;63.93;95204.56;5068421;28;20481;-54
2022/06/17 01:56:41;;;;;;;15.50;11.57;;;18.50;95.60;;;18.82;63.38;95203.91;5065812;28;20478;-52
2022/06/17 01:59:11;;;;;;;14.63;10.93;;;18.40;95.50;;;18.77;63.38;95204.44;5070010;28;20454;-55
2022/06/17 02:01:42;;;;;;;18.47;12.00;;;18.40;95.50;;;18.75;64.17;95201.16;5063082;28;20483;-55
2022/06/17 02:04:12;;;;;;;12.27;10.73;;;18.40;95.50;;;18.71;63.75;95201.69;5065531;28;21002;-54
2022/06/17 02:06:43;;;;;;;15.27;11.80;;;18.30;95.50;;;18.68;63.79;95210.88;5067218;28;20535;-53
2022/06/17 02:09:10;;;;;;;11.80;10.70;;;18.30;95.60;;;18.66;63.50;95217.41;5074554;28;20916;-54
2022/06/17 02:11:37;;;;;;;15.30;10.80;;;18.30;95.60;;;18.62;63.84;95224.91;5058778;28;20498;-53
2022/06/17 02:14:08;;;;;;;11.40;10.40;;;18.20;95.60;;;18.58;63.51;95219.13;5070064;28;20457;-54
2022/06/17 02:16:36;;;;;;;13.03;10.93;;;18.20;95.60;;;18.56;63.84;95218.50;5071107;28;20475;-54
2022/06/17 02:19:03;;;;;;;12.93;10.00;;;18.10;95.70;;;18.53;64.20;95221.50;5061183;28;20662;-54
2022/06/17 02:21:35;;;;;;;14.63;8.90;;;18.10;95.70;;;18.51;63.70;95231.50;5072267;28;20482;-55
2022/06/17 02:24:03;;;;;;;18.77;10.13;;;18.10;95.70;;;18.49;64.60;95236.19;5073295;28;20749;-54
2022/06/17 02:26:30;;;;;;;10.10;9.13;;;18.10;95.70;;;18.46;63.81;95229.38;5071999;28;20485;-54
2022/06/17 02:28:58;;;;;;;9.57;8.63;;;18.10;95.70;;;18.44;64.39;95226.06;5078019;28;20459;-54
2022/06/17 02:31:26;;;;;;;10.47;9.47;;;18.00;95.80;;;18.42;63.94;95222.78;5071539;28;20499;-55
2022/06/17 02:33:54;;;;;;;10.63;8.70;;;18.00;95.90;;;18.39;64.48;95222.31;5072787;28;20454;-53
2022/06/17 02:36:24;;;;;;;11.07;9.17;;;18.00;96.00;;;18.37;64.66;95224.31;5068610;28;20474;-55
2022/06/17 02:38:52;;;;;;;10.07;8.80;;;18.00;96.10;;;18.35;64.34;95221.00;5070056;28;20832;-54
2022/06/17 02:41:21;;;;;;;15.33;9.30;;;18.00;96.10;;;18.33;64.74;95229.19;5071599;28;20931;-53
2022/06/17 02:43:50;;;;;;;8.73;8.00;;;17.90;96.20;;;18.33;64.15;95225.69;5071271;28;20845;-54
2022/06/17 02:46:21;;;;;;;11.80;8.80;;;17.90;96.20;;;18.31;64.98;95225.88;5073410;28;20504;-52
2022/06/17 02:48:54;;;;;;;9.87;8.97;;;17.90;96.30;;;18.31;65.26;95230.34;5073161;28;20450;-55
2022/06/17 02:51:22;;;;;;;9.97;8.70;;;17.90;96.50;;;18.28;64.53;95227.03;5073777;28;20489;-53
2022/06/17 02:53:49;;;;;;;8.77;7.97;;;17.90;96.50;;;18.27;64.88;95225.38;5065561;28;20454;-54
2022/06/17 02:56:20;;;;;;;9.20;8.30;;;17.90;96.50;;;18.27;64.55;95237.88;5067572;28;20868;-56
2022/06/17 02:59:03;;;;;;;9.20;8.40;;;17.90;96.50;;;18.25;64.79;95232.72;5071109;28;20442;-54
2022/06/17 03:01:33;;;;;;;10.03;9.00;;;17.80;96.50;;;18.25;65.29;95221.25;5063860;28;20480;-54
2022/06/17 03:04:02;;;;;;;10.90;8.80;;;17.80;96.60;;;18.23;65.44;95224.09;5064534;28;20462;-53
2022/06/17 03:06:34;;;;;;;12.40;8.80;;;17.80;96.60;;;18.23;65.37;95226.75;5068072;28;20474;-53
2022/06/17 03:09:14;;;;;;;16.03;8.83;;;17.80;96.50;;;18.22;64.79;95221.63;5072121;28;20450;-54
2022/06/17 03:11:42;;;;;;;12.00;9.27;;;17.80;96.70;;;18.22;65.01;95226.94;5070871;28;20477;-53
2022/06/17 03:14:12;;;;;;;10.20;9.17;;;17.80;96.80;;;18.20;65.10;95221.78;5070620;28;20462;-55
2022/06/17 03:16:39;;;;;;;10.23;9.23;;;17.80;96.90;;;18.18;65.06;95226.44;5069783;28;20498;-55
2022/06/17 03:19:08;;;;;;;11.30;9.00;;;17.80;96.90;;;18.16;65.13;95223.16;5068800;28;20996;-54
2022/06/17 03:21:36;;;;;;;11.60;9.23;;;17.80;97.20;;;18.19;65.45;95225.44;5076384;28;20485;-55
2022/06/17 03:24:11;;;;;;;11.00;9.90;;;17.80;96.90;;;18.20;65.30;95223.59;5061037;28;20974;-55
2022/06/17 03:26:43;;;;;;;10.80;9.70;;;17.80;97.10;;;18.19;65.35;95229.97;5067981;28;20462;-56
2022/06/17 03:29:11;;;;;;;13.70;9.30;;;17.80;97.00;;;18.19;65.25;95232.63;5073568;28;20455;-55
2022/06/17 03:31:42;;;;;;;17.53;11.03;;;17.80;97.00;;;18.20;65.41;95235.09;5067537;28;20873;-56
2022/06/17 03:34:14;;;;;;;16.40;10.90;;;17.80;97.10;;;18.24;65.66;95240.91;5069073;28;20450;-55
2022/06/17 03:36:44;;;;;;;11.70;10.50;;;17.80;97.50;;;18.27;65.04;95235.22;5070255;28;20469;-54
2022/06/17 03:39:16;;;;;;;13.30;11.60;;;17.90;97.00;;;18.30;65.57;95231.38;5074482;28;20528;-54
2022/06/17 03:41:48;;;;;;;12.20;10.90;;;17.90;97.00;;;18.33;65.17;95245.16;5080219;28;20974;-54
2022/06/17 03:44:18;;;;;;;14.87;11.33;;;17.90;96.90;;;18.35;65.01;95247.63;5072263;28;20537;-55
2022/06/17 03:46:58;;;;;;;14.00;10.17;;;17.90;96.90;;;18.38;65.37;95245.44;5063366;28;20692;-54
2022/06/17 03:49:31;;;;;;;13.20;9.83;;;18.00;96.90;;;18.40;65.28;95251.44;5066741;28;20457;-55
2022/06/17 03:52:00;;;;;;;13.73;9.60;;;18.00;96.80;;;18.44;64.80;95257.22;5074737;28;21059;-54
2022/06/17 03:54:28;;;;;;;21.17;10.10;;;18.00;96.70;;;18.44;65.02;95252.72;5071072;28;20893;-55
2022/06/17 03:56:56;;;;;;;14.63;10.03;;;18.10;96.70;;;18.48;64.75;95253.16;5067584;28;20470;-54
2022/06/17 03:59:25;;;;;;;16.53;10.57;;;18.10;96.70;;;18.52;64.35;95258.97;5066989;28;20531;-54
2022/06/17 04:01:55;;;;;;;13.10;10.07;;;18.10;96.70;;;18.57;64.23;95267.25;5072544;28;20446;-54
2022/06/17 04:04:28;;;;;;;15.20;9.53;;;18.10;96.60;;;18.63;64.89;95269.22;5069383;28;20466;-54
2022/06/17 04:06:57;;;;;;;12.10;9.73;;;18.20;96.60;;;18.69;64.03;95263.16;5067016;28;20554;-55
2022/06/17 04:09:26;;;;;;;11.90;10.07;;;18.20;96.50;;;18.76;64.13;95273.91;5069736;28;20460;-55
2022/06/17 04:11:57;;;;;;;18.87;9.13;;;18.30;96.40;;;18.79;64.21;95276.22;5077449;28;20516;-55
2022/06/17 04:14:27;;;;;;;12.67;9.77;;;18.40;96.30;;;18.83;63.95;95272.19;5069100;28;20447;-54
2022/06/17 04:17:02;;;;;;;12.20;9.60;;;18.40;96.20;;;18.88;63.81;95277.00;5065799;28;20454;-53
2022/06/17 04:19:31;;;;;;;27.00;9.87;;;18.40;96.20;;;18.94;63.99;95274.44;5057865;28;20778;-56
2022/06/17 04:22:00;;;;;;;19.80;9.97;;;18.50;96.20;;;19.01;64.16;95273.72;5070063;28;20454;-56
2022/06/17 04:24:28;;;;;;;12.00;9.20;;;18.60;96.20;;;19.03;63.54;95267.19;5067515;28;20568;-54
2022/06/17 04:26:59;;;;;;;11.30;9.50;;;18.60;95.90;;;19.08;63.18;95264.81;5064995;28;20458;-55
2022/06/17 04:29:32;;;;;;;15.20;9.73;;;18.60;95.90;;;19.10;63.62;95276.13;5069240;28;20484;-53
2022/06/17 04:32:02;;;;;;;9.50;7.47;;;18.70;96.00;;;19.16;62.99;95266.56;5072596;28;20481;-55
2022/06/17 04:34:31;;;;;;;9.43;7.77;;;18.70;95.90;;;19.20;63.15;95272.38;5078256;28;20953;-56
2022/06/17 04:37:03;;;;;;;12.73;8.50;;;18.80;96.20;;;19.26;63.05;95267.13;5065165;28;20463;-53
2022/06/17 04:39:32;;;;;;;55.80;10.80;;;18.80;95.70;;;19.29;63.14;95266.75;5072752;28;20450;-54
2022/06/17 04:42:02;;;;;;;10.23;7.90;;;18.80;95.70;;;19.32;62.94;95268.22;5066774;28;20458;-55
2022/06/17 04:44:29;;;;;;;9.50;7.97;;;18.90;95.80;;;19.35;63.19;95268.69;5079229;28;21009;-56
2022/06/17 04:46:59;;;;;;;15.93;9.10;;;18.90;95.70;;;19.40;63.37;95269.97;5068950;28;20486;-55
2022/06/17 04:49:29;;;;;;;13.13;8.03;;;18.90;95.70;;;19.44;62.89;95269.41;5070355;28;20450;-54
2022/06/17 04:52:01;;;;;;;9.93;7.97;;;19.00;95.80;;;19.49;62.68;95271.53;5070094;28;20493;-54
2022/06/17 04:54:28;;;;;;;11.17;8.40;;;19.00;95.60;;;19.50;62.76;95265.16;5066855;28;20451;-54
2022/06/17 04:56:56;;;;;;;10.23;8.40;;;19.10;95.40;;;19.51;62.79;95269.50;5068196;28;20516;-56
2022/06/17 04:59:31;;;;;;;9.03;7.60;;;19.10;95.40;;;19.52;62.18;95271.16;5069424;28;20459;-53
2022/06/17 05:01:59;;;;;;;11.90;7.87;;;19.10;95.30;;;19.55;62.92;95268.13;5066639;28;20437;-54
2022/06/17 05:04:26;;;;;;;9.30;8.27;;;19.10;95.40;;;19.58;62.83;95267.75;5063936;28;20553;-55
2022/06/17 05:06:54;;;;;;;34.40;13.60;;;19.10;95.50;;;19.60;62.59;95272.91;5074634;28;20496;-54
2022/06/17 05:09:24;;;;;;;21.13;9.90;;;19.10;95.40;;;19.64;62.74;95272.34;5068881;28;20940;-56
2022/06/17 05:11:54;;;;;;;13.77;8.80;;;19.20;95.60;;;19.71;62.84;95264.41;5073985;28;20481;-55
2022/06/17 05:14:24;;;;;;;10.40;7.07;;;19.30;95.50;;;19.77;62.61;95265.53;5079310;28;20855;-56
2022/06/17 05:16:51;;;;;;;9.70;8.70;;;19.30;95.30;;;19.85;62.49;95263.56;5076555;28;20443;-52
2022/06/17 05:19:21;;;;;;;26.00;10.83;;;19.30;95.40;;;19.91;62.18;95270.03;5067161;28;20450;-53
2022/06/17 05:21:48;;;;;;;11.03;7.57;;;19.40;95.40;;;20.01;61.99;95267.84;5074032;28;20978;-61
2022/06/17 05:24:15;;;;;;;15.47;7.70;;;19.50;95.20;;;20.11;62.15;95264.91;5062108;28;20455;-53
2022/06/17 05:26:44;;;;;;;12.33;8.20;;;19.60;95.00;;;20.25;61.50;95271.22;5065207;28;20459;-56
2022/06/17 05:29:11;;;;;;;14.50;8.00;;;19.70;95.10;;;20.39;61.95;95262.28;5062033;28;20461;-55
2022/06/17 05:31:39;;;;;;;14.50;7.90;;;19.80;95.00;;;20.56;61.21;95256.69;5069381;28;20498;-56
2022/06/17 05:34:06;;;;;;;9.53;7.50;;;20.00;94.80;;;20.69;60.91;95258.69;5068784;28;20462;-54
2022/06/17 05:36:33;;;;;;;8.27;7.47;;;20.10;94.40;;;20.75;60.12;95261.41;5063820;28;20487;-55
2022/06/17 05:39:01;;;;;;;14.43;7.90;;;20.20;94.00;;;20.83;60.12;95256.94;5065403;28;20521;-54
2022/06/17 05:41:28;;;;;;;17.23;7.23;;;20.30;94.00;;;20.94;60.26;95259.06;5071346;28;20836;-55
2022/06/17 05:43:57;;;;;;;13.80;7.10;;;20.40;94.10;;;21.06;59.64;95246.81;5074910;28;20495;-54
2022/06/17 05:46:24;;;;;;;16.03;7.97;;;20.50;93.70;;;21.18;59.90;95256.94;5078717;28;20998;-54
2022/06/17 05:48:51;;;;;;;17.13;7.63;;;20.60;93.70;;;21.30;59.45;95244.69;5072328;28;20450;-54
2022/06/17 05:51:19;;;;;;;14.33;7.43;;;20.70;93.50;;;21.45;59.34;95240.03;5072780;28;20839;-54
2022/06/17 05:53:46;;;;;;;13.50;8.20;;;20.90;93.40;;;21.63;59.02;95242.22;5072946;28;20457;-56
2022/06/17 05:56:14;;;;;;;9.80;7.00;;;21.00;93.20;;;21.80;58.51;95248.03;5076172;28;20481;-55
2022/06/17 05:58:41;;;;;;;11.40;7.13;;;21.20;93.00;;;21.97;58.28;95250.38;5063910;28;20573;-56
2022/06/17 06:01:11;;;;;;;10.80;7.07;;;21.40;92.70;;;22.07;57.46;95242.75;5066376;28;21035;-53
2022/06/17 06:03:38;;;;;;;17.50;6.30;;;21.50;92.40;;;22.18;57.33;95241.34;5070017;28;20499;-56
2022/06/17 06:06:05;;;;;;;9.73;7.50;;;21.60;91.80;;;22.27;56.99;95244.66;5078815;28;20482;-53
2022/06/17 06:08:33;;;;;;;9.43;7.23;;;21.70;91.70;;;22.36;56.66;95252.34;5077038;28;20512;-55
2022/06/17 06:11:00;;;;;;;10.87;8.00;;;21.70;91.30;;;22.45;56.77;95242.25;5066372;28;20479;-55
2022/06/17 06:13:27;;;;;;;9.50;7.13;;;21.90;91.40;;;22.58;56.14;95249.47;5071449;28;20454;-54
2022/06/17 06:15:55;;;;;;;9.60;8.17;;;22.00;91.40;;;22.71;56.10;95245.97;5070450;28;20486;-56
2022/06/17 06:18:27;;;;;;;8.20;7.37;;;22.10;91.00;;;22.81;55.96;95243.69;5066856;28;20490;-56
2022/06/17 06:20:54;;;;;;;15.97;6.40;;;22.20;90.60;;;22.90;55.46;95250.50;5067650;28;20658;-54
2022/06/17 06:23:21;;;;;;;8.40;7.23;;;22.30;90.30;;;23.01;55.23;95248.25;5067266;28;20454;-54
2022/06/17 06:25:49;;;;;;;10.50;7.10;;;22.40;90.10;;;23.00;54.60;95236.66;5079040;28;20977;-54
2022/06/17 06:28:18;;;;;;;8.80;7.27;;;22.40;89.00;;;23.01;54.83;95243.69;5073081;28;20461;-54
2022/06/17 06:30:50;;;;;;;11.23;7.87;;;22.50;88.80;;;23.05;54.06;95236.88;5067617;28;20472;-54
2022/06/17 06:33:17;;;;;;;9.83;6.00;;;22.50;88.80;;;23.12;54.21;95234.22;5065187;28;20555;-53
2022/06/17 06:35:46;;;;;;;7.17;5.80;;;22.50;88.80;;;23.22;54.67;95233.78;5067671;28;20477;-55
2022/06/17 06:38:13;;;;;;;106.83;10.53;;;22.60;89.00;;;23.32;53.96;95234.16;5062275;28;20459;-54
2022/06/17 06:40:41;;;;;;;11.37;6.63;;;22.70;89.10;;;23.41;54.60;95230.22;5064354;28;20585;-56
2022/06/17 06:43:13;;;;;;;9.53;5.93;;;22.80;88.70;;;23.57;54.38;95239.66;5071608;28;20455;-54
2022/06/17 06:45:40;;;;;;;10.30;5.80;;;23.00;88.50;;;23.72;53.70;95238.56;5055377;28;20579;-54
2022/06/17 06:48:09;;;;;;;10.30;6.97;;;23.10;87.80;;;23.85;53.73;95235.06;5045769;28;20467;-54
2022/06/17 06:50:37;;;;;;;16.23;5.83;;;23.20;87.40;;;23.98;52.97;95230.44;5053917;28;20475;-55
2022/06/17 06:53:06;;;;;;;26.67;5.77;;;23.30;87.10;;;24.13;52.64;95234.69;5051255;28;20496;-55
2022/06/17 06:55:34;;;;;;;11.93;5.17;;;23.50;86.80;;;24.25;52.82;95226.78;5060131;28;20482;-55
2022/06/17 06:58:03;;;;;;;11.53;5.57;;;23.60;85.70;;;24.29;52.57;95234.19;5049160;28;20763;-53
2022/06/17 07:00:33;;;;;;;13.87;5.30;;;23.70;85.10;;;24.35;52.26;95229.78;5047606;28;20474;-55
2022/06/17 07:03:00;;;;;;;13.17;5.40;;;23.70;84.60;;;24.45;51.72;95234.72;5042376;28;20463;-53
2022/06/17 07:05:28;;;;;;;13.37;5.47;;;23.80;84.70;;;24.56;51.46;95223.25;5049718;28;20502;-55
2022/06/17 07:07:56;;;;;;;28.47;4.90;;;23.90;83.90;;;24.65;51.05;95216.56;5056075;28;20983;-55
2022/06/17 07:10:27;;;;;;;16.47;5.37;;;24.00;83.50;;;24.79;51.96;95216.47;5064740;28;20535;-54
2022/06/17 07:12:54;;;;;;;8.73;5.17;;;24.10;83.80;;;25.00;51.34;95220.63;5070629;28;20477;-54
2022/06/17 07:15:22;;;;;;;12.30;4.23;;;24.30;83.10;;;25.20;50.66;95221.25;5065791;28;20993;-54
2022/06/17 07:17:57;;;;;;;7.33;4.77;;;24.50;81.80;;;25.40;50.38;95215.66;5074851;28;20450;-56
2022/06/17 07:20:25;;;;;;;6.63;4.33;;;24.70;81.80;;;25.59;49.83;95221.06;5064634;28;20541;-54
2022/06/17 07:22:52;;;;;;;4.80;4.33;;;24.90;80.90;;;25.68;49.42;95214.31;5071476;28;20450;-56
2022/06/17 07:25:20;;;;;;;14.87;4.80;;;25.00;79.00;;;25.74;48.62;95218.00;5068811;28;20475;-54
2022/06/17 07:27:49;;;;;;;11.03;5.13;;;25.10;78.80;;;25.75;48.73;95215.06;5066398;28;20955;-56
2022/06/17 07:30:17;;;;;;;12.27;4.57;;;25.10;77.50;;;25.84;48.61;95218.28;5064780;28;20498;-55
2022/06/17 07:32:45;;;;;;;10.67;4.60;;;25.20;78.20;;;25.94;48.55;95215.84;5068046;28;20516;-56
2022/06/17 07:35:12;;;;;;;11.80;4.37;;;25.20;77.10;;;26.06;48.53;95210.56;5069178;28;20473;-56
2022/06/17 07:40:25;;;;;;;7.83;4.70;;;25.50;76.20;;;26.30;47.45;95211.47;5074943;28;20596;-55
2022/06/17 07:42:54;;;;;;;10.80;4.83;;;25.60;74.80;;;26.37;47.67;95205.97;5060242;28;20465;-56
2022/06/17 07:45:23;;;;;;;10.83;5.03;;;25.70;74.50;;;26.49;47.23;95214.06;5072536;28;20473;-54
2022/06/17 07:47:51;;;;;;;10.07;4.90;;;25.80;74.10;;;26.59;47.26;95200.84;5075504;28;21083;-57
2022/06/17 07:50:20;;;;;;;8.53;4.90;;;25.90;73.70;;;26.71;47.27;95195.50;5074643;28;20469;-56
2022/06/17 07:52:48;;;;;;;5.50;4.70;;;26.00;73.60;;;26.84;47.37;95197.97;5072553;28;21029;-53
2022/06/17 07:55:15;;;;;;;11.13;4.83;;;26.10;73.60;;;26.92;46.97;95201.38;5070933;28;20485;-56
2022/06/17 07:57:43;;;;;;;5.70;5.20;;;26.20;72.90;;;26.95;47.08;95196.31;5076328;28;20559;-55
2022/06/17 08:00:20;;;;;;;10.13;4.57;;;26.30;73.00;;;27.12;46.98;95198.31;5075715;28;20481;-55
2022/06/17 08:02:47;;;;;;;5.47;4.87;;;26.40;73.10;;;27.31;46.27;95188.19;5066833;28;20438;-55
2022/06/17 08:05:15;;;;;;;9.00;5.13;;;26.60;71.90;;;27.49;46.06;95190.78;5069830;28;20480;-53
2022/06/17 08:07:42;;;;;;;10.80;5.10;;;26.80;71.30;;;27.71;46.06;95192.84;5073399;28;20473;-55
2022/06/17 08:10:10;;;;;;;9.23;5.10;;;27.00;70.70;;;27.93;45.69;95186.78;5075044;28;20469;-55
2022/06/17 08:12:38;;;;;;;9.13;5.40;;;27.20;70.30;;;28.13;45.70;95181.78;5076141;28;20488;-56
2022/06/17 08:15:06;;;;;;;5.73;5.23;;;27.40;69.40;;;28.34;45.32;95176.75;5070376;28;20543;-57
2022/06/17 08:17:35;;;;;;;10.50;6.03;;;27.60;68.60;;;28.52;45.21;95184.63;5071181;28;20447;-54
2022/06/17 08:20:09;;;;;;;6.83;5.40;;;27.80;68.40;;;28.53;44.84;95183.56;5077508;28;20477;-56
2022/06/17 08:22:37;;;;;;;7.87;5.57;;;27.90;67.50;;;28.48;44.40;95179.97;5079263;28;20478;-55
2022/06/17 08:25:05;;;;;;;7.20;5.07;;;27.80;66.50;;;28.42;44.70;95173.63;5069372;28;21024;-55
2022/06/17 08:27:33;;;;;;;8.63;5.70;;;27.80;66.20;;;28.45;44.89;95170.44;5071045;28;21133;-54
2022/06/17 08:30:00;;;;;;;9.63;5.73;;;27.80;66.60;;;28.58;44.69;95166.56;5078118;28;20473;-55
2022/06/17 08:35:26;;;;;;;10.50;5.33;;;28.00;66.40;;;28.99;43.76;95167.25;5017870;28;20469;-54
2022/06/17 08:37:55;;;;;;;7.73;5.13;;;28.20;65.80;;;29.13;43.87;95163.13;5070545;28;21088;-54
2022/06/17 08:40:39;;;;;;;6.17;4.90;;;28.40;65.40;;;29.29;43.65;95158.75;5074837;28;20998;-55
2022/06/17 08:43:30;;;;;;;11.83;5.17;;;28.60;64.10;;;29.43;43.89;95158.38;5083258;28;20454;-53
2022/06/17 08:46:08;;;;;;;20.00;5.63;;;28.70;64.20;;;29.53;42.95;95153.09;5043426;28;20513;-54
2022/06/17 08:48:44;;;;;;;25.07;6.50;;;28.80;63.00;;;29.52;42.78;95165.00;5072716;28;20464;-56
2022/06/17 08:51:25;;;;;;;8.07;5.83;;;28.90;62.80;;;29.55;43.02;95148.25;5076622;28;20493;-55
2022/06/17 08:54:25;;;;;;;11.70;6.47;;;28.90;61.70;;;29.54;42.51;95154.72;5076546;28;20478;-56
2022/06/17 08:56:59;;;;;;;12.00;6.40;;;28.90;61.40;;;29.63;43.59;95160.53;5066279;28;20852;-52
2022/06/17 08:59:57;;;;;;;12.57;6.53;;;28.90;62.60;;;29.82;42.93;95167.31;5071432;28;20484;-53
2022/06/17 09:02:36;;;;;;;7.00;5.90;;;29.10;62.00;;;30.00;43.05;95160.69;5072885;28;20441;-56
2022/06/17 09:05:25;;;;;;;6.13;5.50;;;29.30;61.80;;;30.20;42.46;95170.13;5067513;28;20480;-54
2022/06/17 09:08:04;;;;;;;12.93;6.50;;;29.40;60.80;;;30.36;41.43;95166.47;5068293;28;20931;-56
2022/06/17 09:10:38;;;;;;;19.67;6.30;;;29.60;60.40;;;30.51;41.59;95165.03;5073657;28;20589;-56
2022/06/17 09:13:26;;;;;;;10.63;6.77;;;29.80;60.20;;;30.67;41.72;95166.78;5076962;28;20722;-55
2022/06/17 09:15:57;;;;;;;9.27;7.10;;;29.90;60.50;;;30.84;41.76;95173.97;5071278;28;20215;-53
2022/06/17 09:18:29;;;;;;;13.10;6.90;;;30.10;60.20;;;30.98;42.00;95160.78;5067450;28;20200;-55
2022/06/17 09:21:01;;;;;;;10.27;8.37;;;30.20;59.70;;;31.11;41.75;95165.78;5076196;28;20843;-55
2022/06/17 09:23:34;;;;;;;10.97;8.50;;;30.40;59.80;;;31.21;41.59;95163.09;5079113;28;20227;-55
2022/06/17 09:26:01;;;;;;;10.90;8.17;;;30.50;59.70;;;31.29;41.67;95169.94;5070934;28;20232;-55
2022/06/17 09:28:36;;;;;;;14.80;8.47;;;30.60;59.70;;;31.36;42.17;95156.94;5071420;28;20591;-54
2022/06/17 09:31:06;;;;;;;8.57;6.80;;;30.70;59.60;;;31.49;41.03;95152.09;5076371;28;20223;-55
2022/06/17 09:33:36;;;;;;;10.70;7.47;;;30.70;58.40;;;31.51;41.15;95152.66;5073842;28;20242;-55
2022/06/17 09:36:08;;;;;;;16.43;8.07;;;30.80;58.40;;;31.53;41.22;95145.88;5070973;28;20220;-55
2022/06/17 09:38:41;;;;;;;9.43;6.53;;;30.80;58.10;;;31.52;40.21;95146.94;5071263;28;20210;-54
2022/06/17 09:41:13;;;;;;;7.67;5.70;;;30.80;57.40;;;31.55;40.04;95142.91;5071389;28;20220;-54
2022/06/17 09:43:44;;;;;;;7.03;6.40;;;30.90;56.90;;;31.61;39.99;95150.00;5081594;28;20666;-55
2022/06/17 09:46:19;;;;;;;7.37;6.60;;;30.90;56.90;;;31.65;39.43;95148.38;5071930;28;20227;-56
2022/06/17 09:48:52;;;;;;;13.30;6.03;;;31.00;55.40;;;31.67;39.36;95140.78;5070727;28;20202;-56
2022/06/17 09:51:21;;;;;;;19.93;6.30;;;31.00;55.30;;;31.71;40.03;95141.88;5075556;28;20224;-54
2022/06/17 09:53:52;;;;;;;9.23;6.40;;;31.00;55.80;;;31.79;39.69;95143.25;5076845;28;20227;-54
2022/06/17 09:56:23;;;;;;;7.23;5.23;;;31.10;56.10;;;31.87;39.14;95145.47;5073985;28;20331;-53
2022/06/17 09:58:53;;;;;;;5.27;4.87;;;31.20;54.70;;;31.94;38.59;95143.31;5070501;28;20204;-56
2022/06/17 10:01:20;;;;;;;6.60;5.83;;;31.20;53.40;;;31.99;38.61;95140.63;5070408;28;20228;-55
2022/06/17 10:03:48;;;;;;;5.83;5.33;;;31.30;53.50;;;32.05;36.78;95151.50;5077034;28;20208;-53
2022/06/17 10:06:25;;;;;;;5.73;5.17;;;31.30;51.60;;;32.03;36.40;95149.03;5074776;28;20345;-56
2022/06/17 10:09:04;;;;;;;5.40;4.90;;;31.40;50.50;;;31.96;36.21;95141.16;5067927;28;20283;-56
2022/06/17 10:11:35;;;;;;;5.30;4.60;;;31.30;51.10;;;31.89;35.05;95137.84;5074609;28;20227;-56
2022/06/17 10:14:15;;;;;;;4.43;4.13;;;31.30;48.50;;;31.79;34.98;95144.09;5073542;28;20215;-54
2022/06/17 10:19:51;;;;;;;5.80;4.30;;;31.10;48.70;;;31.73;36.31;95139.72;5070476;28;20279;-55
2022/06/17 10:22:29;;;;;;;4.68;4.28;;;31.10;50.00;;;31.78;34.59;95133.47;5072558;28;20199;-55
2022/06/17 10:25:05;;;;;;;4.20;3.70;;;31.10;48.30;;;31.74;33.69;95130.47;5078205;28;20228;-55
2022/06/17 10:27:43;;;;;;;6.80;4.30;;;31.10;47.00;;;31.73;33.93;95122.56;5072675;28;20196;-56
2022/06/17 10:30:14;;;;;;;3.77;3.43;;;31.00;47.60;;;31.71;33.89;95122.84;5070515;28;20239;-56
2022/06/17 10:32:43;;;;;;;4.27;3.87;;;31.00;46.60;;;31.69;34.14;95119.56;5074790;28;20226;-55
2022/06/17 10:35:16;;;;;;;5.97;4.80;;;31.00;46.40;;;31.61;33.94;95133.69;5082466;28;20251;-58
2022/06/17 10:37:43;;;;;;;4.77;4.53;;;31.00;46.90;;;31.51;33.89;95133.63;5075255;28;20197;-53